Time;durP1;ratioP1;P1;durP2;ratioP2;P2;SDS_P1;SDS_P2;PMS_P1;PMS_P2;Temp;Humidity;BMP_temperature;BMP_pressure;BME280_temperature;BME280_humidity;BME280_pressure;Samples;Min_cycle;Max_cycle;Signal;HPM_P1;HPM_P2
2022/09/15 00:01:30;;;;;;;;;;;;;;;17.32;71.30;95217.72;5115378;28;1003;-60
2022/09/15 00:03:56;;;;;;;;;;;;;;;16.83;72.73;95219.56;5113869;28;1941;-60
2022/09/15 00:06:22;;;;;;;;;;;;;;;16.59;73.89;95202.75;5113579;28;1119;-61
2022/09/15 00:08:48;;;;;;;;;;;;;;;16.58;74.01;95201.09;5115309;28;1000;-61
2022/09/15 00:11:16;;;;;;;;;;;;;;;16.72;73.60;95210.09;5115367;28;972;-60
2022/09/15 00:13:42;;;;;;;;;;;;;;;16.79;73.34;95220.97;5115010;28;1028;-60
2022/09/15 00:16:09;;;;;;;;;;;;;;;17.02;72.71;95217.19;5115189;28;953;-61
2022/09/15 00:18:36;;;;;;;;;;;;;;;16.98;72.11;95209.47;5114790;28;1066;-60
2022/09/15 00:21:29;;;;;;;;;;;;;;;17.04;72.29;95223.22;5115021;28;1040;-60
2022/09/15 00:23:55;;;;;;;;;;;;;;;17.12;71.41;95213.06;5111096;28;1917;-60
2022/09/15 00:26:23;;;;;;;;;;;;;;;17.16;71.67;95197.28;5114968;28;1003;-60
2022/09/15 00:28:49;;;;;;;;;;;;;;;16.93;71.85;95206.53;5113492;28;964;-60
2022/09/15 00:31:16;;;;;;;;;;;;;;;16.72;72.77;95206.56;5113770;28;1040;-61
2022/09/15 00:33:45;;;;;;;;;;;;;;;16.71;73.01;95200.34;5114812;27;976;-60
2022/09/15 00:36:13;;;;;;;;;;;;;;;16.84;72.38;95201.47;5114867;28;1023;-60
2022/09/15 00:38:39;;;;;;;;;;;;;;;17.06;71.05;95192.25;5114500;28;1033;-60
2022/09/15 00:41:07;;;;;;;;;;;;;;;16.96;71.42;95203.44;5114628;27;1103;-61
2022/09/15 00:43:51;;;;;;;;;;;;;;;16.70;72.46;95203.25;5114591;28;1929;-60
2022/09/15 00:46:19;;;;;;;;;;;;;;;16.83;72.00;95206.06;5114431;28;1040;-60
2022/09/15 00:48:58;;;;;;;;;;;;;;;16.96;71.78;95202.59;5114520;28;1176;-60
2022/09/15 00:52:00;;;;;;;;;;;;;;;17.11;71.22;95195.19;5114565;28;964;-61
2022/09/15 00:54:38;;;;;;;;;;;;;;;16.97;71.60;95196.97;5041042;28;1311;-61
2022/09/15 00:57:08;;;;;;;;;;;;;;;16.73;72.27;95200.13;5106803;28;1104;-60
2022/09/15 00:59:36;;;;;;;;;;;;;;;16.71;72.70;95199.50;5114247;28;1046;-61
2022/09/15 01:02:04;;;;;;;;;;;;;;;16.71;72.18;95192.25;5114305;28;1036;-61
2022/09/15 01:04:31;;;;;;;;;;;;;;;16.44;73.23;95191.22;5113825;28;1995;-61
2022/09/15 01:06:59;;;;;;;;;;;;;;;16.25;73.81;95194.59;5114247;28;1171;-61
2022/09/15 01:09:28;;;;;;;;;;;;;;;16.50;73.26;95187.72;5114044;28;996;-61
2022/09/15 01:11:54;;;;;;;;;;;;;;;16.49;72.57;95196.03;5114255;28;1015;-61
2022/09/15 01:14:21;;;;;;;;;;;;;;;16.52;72.68;95192.94;5113972;28;1071;-61
2022/09/15 01:17:02;;;;;;;;;;;;;;;16.59;72.37;95191.94;5113352;28;994;-61
2022/09/15 01:19:51;;;;;;;;;;;;;;;16.50;72.86;95186.91;5113813;28;1106;-61
2022/09/15 01:22:20;;;;;;;;;;;;;;;16.49;72.38;95183.38;5084921;28;1288;-61
2022/09/15 01:25:05;;;;;;;;;;;;;;;16.48;72.90;95184.41;5113792;28;1027;-60
2022/09/15 01:27:31;;;;;;;;;;;;;;;16.63;72.31;95187.00;5113746;28;1218;-61
2022/09/15 01:29:57;;;;;;;;;;;;;;;16.39;73.35;95188.31;5113934;28;959;-61
2022/09/15 01:35:24;;;;;;;;;;;;;;;16.20;74.06;95192.47;5113767;28;1024;-61
2022/09/15 01:38:02;;;;;;;;;;;;;;;16.52;73.05;95188.41;5113785;28;1047;-61
2022/09/15 01:40:31;;;;;;;;;;;;;;;16.33;73.39;95180.97;5113720;28;1039;-61
2022/09/15 01:42:59;;;;;;;;;;;;;;;16.31;73.79;95191.94;5113512;28;1902;-61
2022/09/15 01:45:28;;;;;;;;;;;;;;;16.44;73.46;95191.22;5113668;28;1031;-61
2022/09/15 01:47:55;;;;;;;;;;;;;;;16.29;73.98;95195.88;5114157;28;1126;-61
2022/09/15 01:50:24;;;;;;;;;;;;;;;16.47;73.45;95193.53;5113542;28;1138;-61
2022/09/15 01:52:53;;;;;;;;;;;;;;;16.25;73.98;95184.66;5113686;28;1091;-61
2022/09/15 01:55:22;;;;;;;;;;;;;;;16.07;74.50;95200.47;5113324;28;1205;-61
2022/09/15 01:57:48;;;;;;;;;;;;;;;16.26;74.43;95191.72;5113772;28;1055;-61
2022/09/15 02:00:14;;;;;;;;;;;;;;;16.18;74.66;95200.78;5113477;28;1035;-61
2022/09/15 02:02:45;;;;;;;;;;;;;;;16.47;73.43;95200.81;5113541;28;1988;-61
2022/09/15 02:05:13;;;;;;;;;;;;;;;16.48;72.94;95208.69;5113343;28;980;-61
2022/09/15 02:07:46;;;;;;;;;;;;;;;16.33;73.75;95211.50;5112119;28;1096;-61
2022/09/15 02:10:16;;;;;;;;;;;;;;;16.29;73.89;95214.78;5113568;28;964;-61
2022/09/15 02:12:52;;;;;;;;;;;;;;;16.31;73.63;95210.84;5113962;28;968;-59
2022/09/15 02:15:32;;;;;;;;;;;;;;;16.46;72.80;95196.44;5113317;28;1023;-62
2022/09/15 02:17:59;;;;;;;;;;;;;;;16.56;71.75;95181.56;5113751;28;1027;-60
2022/09/15 02:20:45;;;;;;;;;;;;;;;16.72;70.98;95182.28;5113179;28;1044;-60
2022/09/15 02:23:14;;;;;;;;;;;;;;;16.58;71.73;95184.06;5113296;28;1902;-60
2022/09/15 02:25:44;;;;;;;;;;;;;;;16.13;73.22;95191.63;5113188;28;1028;-60
2022/09/15 02:28:12;;;;;;;;;;;;;;;16.16;73.26;95189.38;5113834;28;1008;-60
2022/09/15 02:30:40;;;;;;;;;;;;;;;15.99;73.72;95185.25;5117075;28;1032;-61
2022/09/15 02:33:10;;;;;;;;;;;;;;;16.04;73.63;95172.03;5117193;28;1052;-61
2022/09/15 02:35:38;;;;;;;;;;;;;;;16.34;72.38;95177.25;5116963;28;956;-61
2022/09/15 02:38:06;;;;;;;;;;;;;;;16.42;72.43;95178.97;5117140;28;960;-61
2022/09/15 02:40:32;;;;;;;;;;;;;;;16.49;72.14;95180.69;5116704;28;928;-60
2022/09/15 02:43:02;;;;;;;;;;;;;;;16.00;72.99;95176.16;5117132;28;1910;-60
2022/09/15 02:45:29;;;;;;;;;;;;;;;16.12;73.19;95177.28;5116864;28;1063;-60
2022/09/15 02:47:58;;;;;;;;;;;;;;;16.03;73.23;95181.16;5117087;28;944;-61
2022/09/15 02:50:25;;;;;;;;;;;;;;;15.97;73.35;95171.13;5116691;28;1089;-61
2022/09/15 02:52:52;;;;;;;;;;;;;;;15.85;73.93;95164.59;5116845;28;1023;-60
2022/09/15 02:55:18;;;;;;;;;;;;;;;15.81;73.98;95169.53;5116378;28;1203;-61
2022/09/15 02:57:45;;;;;;;;;;;;;;;15.93;73.95;95170.69;5116966;28;1048;-60
2022/09/15 03:00:14;;;;;;;;;;;;;;;15.99;73.12;95177.16;5116489;28;1087;-61
2022/09/15 03:02:42;;;;;;;;;;;;;;;15.95;73.19;95176.75;5115478;28;1905;-61
2022/09/15 03:05:08;;;;;;;;;;;;;;;15.81;74.06;95178.47;5116471;28;1032;-60
2022/09/15 03:07:36;;;;;;;;;;;;;;;15.93;73.15;95183.34;5116333;28;1352;-60
2022/09/15 03:10:02;;;;;;;;;;;;;;;15.79;73.10;95182.38;5116282;28;1086;-60
2022/09/15 03:12:28;;;;;;;;;;;;;;;15.48;74.12;95179.94;5115328;28;1055;-60
2022/09/15 03:14:54;;;;;;;;;;;;;;;15.43;74.81;95178.66;5116190;28;1036;-61
2022/09/15 03:17:20;;;;;;;;;;;;;;;15.59;74.11;95182.13;5116364;28;971;-60
2022/09/15 03:19:47;;;;;;;;;;;;;;;15.68;73.85;95172.91;5116195;28;1029;-60
2022/09/15 03:22:13;;;;;;;;;;;;;;;15.78;73.52;95173.47;5116259;28;956;-61
2022/09/15 03:24:41;;;;;;;;;;;;;;;15.95;72.44;95174.03;5116314;28;1984;-61
2022/09/15 03:27:07;;;;;;;;;;;;;;;15.93;72.75;95183.34;5116355;28;1016;-61
2022/09/15 03:29:33;;;;;;;;;;;;;;;15.86;73.16;95179.72;5116002;28;1885;-61
2022/09/15 03:31:59;;;;;;;;;;;;;;;15.83;73.22;95177.44;5116096;28;976;-61
2022/09/15 03:34:25;;;;;;;;;;;;;;;15.89;73.08;95176.66;5116004;28;968;-60
2022/09/15 03:36:51;;;;;;;;;;;;;;;15.96;71.68;95178.38;5115823;28;940;-60
2022/09/15 03:39:17;;;;;;;;;;;;;;;15.54;73.40;95188.13;5115582;28;1019;-60
2022/09/15 03:41:43;;;;;;;;;;;;;;;15.69;73.48;95187.22;5115248;28;1039;-60
2022/09/15 03:44:09;;;;;;;;;;;;;;;15.85;72.99;95180.78;5115877;28;1988;-60
2022/09/15 03:46:35;;;;;;;;;;;;;;;15.91;72.48;95185.38;5115629;28;1095;-60
2022/09/15 03:49:02;;;;;;;;;;;;;;;15.61;73.46;95180.09;5115805;28;1031;-60
2022/09/15 03:51:28;;;;;;;;;;;;;;;15.65;73.55;95184.09;5115503;28;991;-60
2022/09/15 03:53:54;;;;;;;;;;;;;;;15.74;73.52;95193.72;5115457;28;1354;-60
2022/09/15 03:56:31;;;;;;;;;;;;;;;15.68;73.60;95194.47;5114339;28;1048;-60
2022/09/15 03:59:01;;;;;;;;;;;;;;;15.38;73.94;95191.84;5115700;28;1036;-60
2022/09/15 04:01:28;;;;;;;;;;;;;;;15.39;74.25;95177.38;5115337;28;969;-60
2022/09/15 04:03:54;;;;;;;;;;;;;;;15.72;73.46;95182.28;5115234;28;1996;-60
2022/09/15 04:06:21;;;;;;;;;;;;;;;15.93;72.35;95188.72;5114842;28;1183;-61
2022/09/15 04:08:48;;;;;;;;;;;;;;;15.91;72.89;95182.69;5115520;28;1035;-61
2022/09/15 04:11:15;;;;;;;;;;;;;;;15.68;73.21;95178.28;5114951;28;1040;-59
2022/09/15 04:13:42;;;;;;;;;;;;;;;15.55;73.73;95175.47;5115191;28;1031;-60
2022/09/15 04:16:15;;;;;;;;;;;;;;;15.52;74.07;95173.16;5114877;28;1040;-60
2022/09/15 04:18:41;;;;;;;;;;;;;;;15.70;73.83;95181.63;5115131;28;983;-61
2022/09/15 04:21:12;;;;;;;;;;;;;;;15.59;74.14;95190.22;5114866;28;964;-61
2022/09/15 04:23:39;;;;;;;;;;;;;;;15.58;74.41;95188.56;5114775;28;1905;-61
2022/09/15 04:26:06;;;;;;;;;;;;;;;15.38;75.38;95175.69;5114735;28;1012;-61
2022/09/15 04:28:34;;;;;;;;;;;;;;;15.27;75.37;95189.69;5114908;28;961;-60
2022/09/15 04:31:08;;;;;;;;;;;;;;;15.45;74.80;95183.88;5113582;28;1109;-60
2022/09/15 04:33:34;;;;;;;;;;;;;;;15.75;73.48;95184.63;5114668;28;972;-61
2022/09/15 04:36:01;;;;;;;;;;;;;;;15.52;75.15;95175.88;5114846;28;1051;-59
2022/09/15 04:38:27;;;;;;;;;;;;;;;15.50;75.74;95176.06;5114892;28;1008;-60
2022/09/15 04:40:54;;;;;;;;;;;;;;;15.56;75.90;95182.53;5114585;28;1024;-60
2022/09/15 04:43:20;;;;;;;;;;;;;;;15.73;75.01;95194.78;5114532;28;1997;-60
2022/09/15 04:45:47;;;;;;;;;;;;;;;15.85;74.76;95191.56;5114554;28;1024;-60
2022/09/15 04:48:13;;;;;;;;;;;;;;;16.02;73.96;95190.25;5114462;28;1052;-61
2022/09/15 04:50:39;;;;;;;;;;;;;;;16.04;74.43;95182.00;5114493;28;1052;-60
2022/09/15 04:53:06;;;;;;;;;;;;;;;16.05;74.57;95197.97;5114178;28;1261;-60
2022/09/15 04:55:33;;;;;;;;;;;;;;;16.06;75.16;95201.50;5114305;27;1212;-60
2022/09/15 04:57:59;;;;;;;;;;;;;;;15.97;74.65;95203.47;5114301;28;1131;-60
2022/09/15 05:00:25;;;;;;;;;;;;;;;15.91;74.81;95204.25;5114255;28;1075;-60
2022/09/15 05:02:52;;;;;;;;;;;;;;;16.04;75.08;95208.94;5113972;28;1994;-65
2022/09/15 05:05:18;;;;;;;;;;;;;;;16.21;74.68;95215.75;5114404;28;1043;-59
2022/09/15 05:07:46;;;;;;;;;;;;;;;16.27;74.81;95219.53;5114020;28;1080;-58
2022/09/15 05:10:13;;;;;;;;;;;;;;;16.35;74.49;95213.97;5114190;28;1040;-58
2022/09/15 05:12:39;;;;;;;;;;;;;;;16.48;74.54;95197.88;5113992;28;1027;-58
2022/09/15 05:15:05;;;;;;;;;;;;;;;16.27;75.34;95200.63;5114157;28;1027;-59
2022/09/15 05:17:31;;;;;;;;;;;;;;;16.22;76.14;95195.84;5113718;28;1080;-58
2022/09/15 05:19:58;;;;;;;;;;;;;;;16.35;76.31;95201.34;5114287;28;1123;-59
2022/09/15 05:22:24;;;;;;;;;;;;;;;16.43;75.86;95194.09;5113777;28;1088;-59
2022/09/15 05:24:50;;;;;;;;;;;;;;;16.41;76.32;95186.22;5114056;28;1963;-60
2022/09/15 05:27:17;;;;;;;;;;;;;;;16.42;76.67;95177.09;5113852;28;1052;-59
2022/09/15 05:29:43;;;;;;;;;;;;;;;16.56;76.89;95169.91;5113917;28;1119;-59
2022/09/15 05:32:09;;;;;;;;;;;;;;;16.81;75.53;95162.19;5113680;28;1032;-57
2022/09/15 05:34:35;;;;;;;;;;;;;;;16.85;75.45;95158.09;5114022;28;961;-58
2022/09/15 05:37:01;;;;;;;;;;;;;;;16.89;75.47;95161.22;5113819;28;1047;-58
2022/09/15 05:39:27;;;;;;;;;;;;;;;16.94;75.16;95151.50;5113768;28;1098;-59
2022/09/15 05:41:54;;;;;;;;;;;;;;;17.06;74.61;95154.44;5113744;28;1028;-59
2022/09/15 05:44:20;;;;;;;;;;;;;;;17.14;75.27;95164.25;5113666;28;1914;-59
2022/09/15 05:46:46;;;;;;;;;;;;;;;17.25;74.97;95157.44;5113669;28;917;-59
2022/09/15 05:49:12;;;;;;;;;;;;;;;17.33;74.68;95163.47;5113786;28;953;-58
2022/09/15 05:51:39;;;;;;;;;;;;;;;17.41;74.13;95161.63;5113570;28;1092;-58
2022/09/15 05:54:05;;;;;;;;;;;;;;;17.49;74.15;95169.53;5113414;28;1216;-59
2022/09/15 05:56:32;;;;;;;;;;;;;;;17.52;73.66;95164.56;5113745;28;1032;-59
2022/09/15 05:58:58;;;;;;;;;;;;;;;17.58;72.88;95162.91;5113486;28;1040;-58
2022/09/15 06:01:28;;;;;;;;;;;;;;;17.54;72.66;95167.06;5113476;28;1041;-58
2022/09/15 06:03:55;;;;;;;;;;;;;;;17.55;73.78;95166.06;5115175;28;1898;-58
2022/09/15 06:06:21;;;;;;;;;;;;;;;17.63;73.74;95165.84;5117664;28;1349;-59
2022/09/15 06:08:49;;;;;;;;;;;;;;;17.66;72.53;95159.19;5117637;28;952;-58
2022/09/15 06:11:16;;;;;;;;;;;;;;;17.76;73.06;95149.66;5117526;28;1112;-58
2022/09/15 06:13:43;;;;;;;;;;;;;;;18.15;71.30;95158.03;5117440;28;964;-59
2022/09/15 06:16:10;;;;;;;;;;;;;;;18.26;71.79;95170.13;5117525;28;1046;-58
2022/09/15 06:18:37;;;;;;;;;;;;;;;18.59;70.72;95169.25;5117488;28;1007;-58
2022/09/15 06:21:04;;;;;;;;;;;;;;;18.76;69.80;95159.63;5117549;28;1047;-59
2022/09/15 06:23:30;;;;;;;;;;;;;;;18.76;69.64;95158.81;5117065;28;1988;-58
2022/09/15 06:26:02;;;;;;;;;;;;;;;18.59;69.86;95163.81;5117402;28;991;-58
2022/09/15 06:28:28;;;;;;;;;;;;;;;18.83;69.13;95162.38;5117040;28;964;-58
2022/09/15 06:30:54;;;;;;;;;;;;;;;19.00;68.66;95158.13;5117234;28;1048;-59
2022/09/15 06:33:20;;;;;;;;;;;;;;;19.01;69.59;95162.53;5116948;28;1041;-59
2022/09/15 06:35:46;;;;;;;;;;;;;;;19.03;69.14;95157.72;5117161;28;1044;-58
2022/09/15 06:38:12;;;;;;;;;;;;;;;19.10;69.59;95163.09;5116932;28;1241;-58
2022/09/15 06:40:38;;;;;;;;;;;;;;;19.16;69.14;95164.97;5117031;28;1023;-58
2022/09/15 06:43:04;;;;;;;;;;;;;;;19.41;67.34;95167.78;5116728;28;1906;-58
2022/09/15 06:45:30;;;;;;;;;;;;;;;19.67;66.32;95171.41;5117108;28;964;-58
2022/09/15 06:47:56;;;;;;;;;;;;;;;19.93;65.48;95164.19;5116841;28;1098;-59
2022/09/15 06:50:23;;;;;;;;;;;;;;;20.13;64.90;95164.88;5116660;28;1107;-59
2022/09/15 06:52:49;;;;;;;;;;;;;;;20.20;64.66;95162.09;5116810;28;1068;-58
2022/09/15 06:55:15;;;;;;;;;;;;;;;20.31;64.05;95161.38;5116500;28;1153;-58
2022/09/15 06:57:41;;;;;;;;;;;;;;;20.49;63.62;95157.91;5116724;28;1048;-59
2022/09/15 07:00:07;;;;;;;;;;;;;;;20.78;63.10;95153.69;5116811;28;1026;-59
2022/09/15 07:02:33;;;;;;;;;;;;;;;21.05;62.73;95151.50;5116693;28;1905;-59
2022/09/15 07:04:59;;;;;;;;;;;;;;;21.37;61.62;95158.66;5116637;28;1031;-59
2022/09/15 07:07:26;;;;;;;;;;;;;;;21.61;61.38;95163.19;5116236;28;1262;-59
2022/09/15 07:09:52;;;;;;;;;;;;;;;21.94;61.36;95170.06;5116428;28;1059;-59
2022/09/15 07:12:18;;;;;;;;;;;;;;;22.38;60.38;95175.28;5116351;28;985;-59
2022/09/15 07:14:44;;;;;;;;;;;;;;;22.60;60.77;95184.56;5114016;28;1039;-59
2022/09/15 07:17:10;;;;;;;;;;;;;;;22.92;59.27;95186.13;5116447;28;1007;-59
2022/09/15 07:19:37;;;;;;;;;;;;;;;23.20;58.58;95182.66;5114755;28;1040;-59
2022/09/15 07:22:03;;;;;;;;;;;;;;;24.05;55.69;95180.28;5116248;28;1044;-59
2022/09/15 07:24:29;;;;;;;;;;;;;;;24.88;53.07;95192.38;5115873;28;1992;-59
2022/09/15 07:26:55;;;;;;;;;;;;;;;25.89;49.38;95191.28;5116051;28;1062;-59
2022/09/15 07:29:21;;;;;;;;;;;;;;;26.35;48.95;95188.25;5114828;28;1028;-59
2022/09/15 07:31:47;;;;;;;;;;;;;;;26.52;49.17;95195.53;5116246;28;1051;-59
2022/09/15 07:34:13;;;;;;;;;;;;;;;26.50;48.99;95195.78;5115992;28;968;-59
2022/09/15 07:36:39;;;;;;;;;;;;;;;26.80;46.98;95208.13;5116114;28;960;-59
2022/09/15 07:39:05;;;;;;;;;;;;;;;27.52;46.77;95203.16;5115753;28;1092;-59
2022/09/15 07:41:32;;;;;;;;;;;;;;;28.08;44.90;95208.06;5115806;28;1031;-59
2022/09/15 07:43:59;;;;;;;;;;;;;;;28.53;44.13;95199.16;5115575;28;1988;-59
2022/09/15 07:46:26;;;;;;;;;;;;;;;29.14;42.99;95205.75;5115888;27;1039;-59
2022/09/15 07:48:55;;;;;;;;;;;;;;;29.73;40.80;95207.84;5115795;28;968;-59
2022/09/15 07:51:22;;;;;;;;;;;;;;;29.89;40.70;95202.28;5115664;28;1039;-59
2022/09/15 07:53:48;;;;;;;;;;;;;;;29.75;41.41;95202.88;5115543;28;1209;-59
2022/09/15 07:56:16;;;;;;;;;;;;;;;29.47;41.07;95200.75;5115380;28;1020;-59
2022/09/15 07:58:43;;;;;;;;;;;;;;;29.43;41.79;95207.94;5115751;28;1082;-59
2022/09/15 08:01:13;;;;;;;;;;;;;;;29.71;41.02;95203.69;5115275;28;1024;-59
2022/09/15 08:03:41;;;;;;;;;;;;;;;30.35;39.84;95207.59;5115380;28;1909;-60
2022/09/15 08:06:08;;;;;;;;;;;;;;;31.38;37.30;95213.16;5115217;28;1016;-60
2022/09/15 08:08:35;;;;;;;;;;;;;;;32.40;36.07;95213.91;5115119;28;1067;-59
2022/09/15 08:11:04;;;;;;;;;;;;;;;33.30;34.21;95213.94;5115033;28;1108;-60
2022/09/15 08:13:30;;;;;;;;;;;;;;;33.86;32.59;95206.53;5115340;28;1031;-60
2022/09/15 08:16:03;;;;;;;;;;;;;;;34.42;32.55;95208.16;5115223;28;1107;-60
2022/09/15 08:18:29;;;;;;;;;;;;;;;35.17;31.15;95196.69;5115093;28;1028;-60
2022/09/15 08:20:55;;;;;;;;;;;;;;;35.71;31.78;95193.94;5115001;28;968;-60
2022/09/15 08:23:22;;;;;;;;;;;;;;;36.26;30.82;95199.06;5114789;28;1909;-60
2022/09/15 08:25:50;;;;;;;;;;;;;;;36.99;28.88;95197.66;5114471;27;1106;-60
2022/09/15 08:28:16;;;;;;;;;;;;;;;37.36;28.72;95198.97;5115005;28;1032;-60
2022/09/15 08:30:42;;;;;;;;;;;;;;;36.33;28.99;95193.84;5114748;28;1036;-60
2022/09/15 08:33:08;;;;;;;;;;;;;;;34.41;32.23;95176.00;5114879;28;1036;-60
2022/09/15 08:35:35;;;;;;;;;;;;;;;32.39;34.42;95168.00;5114644;28;1023;-60
2022/09/15 08:38:02;;;;;;;;;;;;;;;30.49;37.34;95150.69;5114678;28;992;-60
2022/09/15 08:40:31;;;;;;;;;;;;;;;29.31;40.86;95147.63;5114680;28;972;-59
2022/09/15 08:43:00;;;;;;;;;;;;;;;28.32;43.18;95146.00;5114839;28;1994;-60
2022/09/15 08:45:29;;;;;;;;;;;;;;;27.61;45.00;95132.91;5114585;28;963;-59
2022/09/15 08:47:58;;;;;;;;;;;;;;;27.10;44.74;95135.38;5114817;27;991;-59
2022/09/15 08:50:28;;;;;;;;;;;;;;;26.64;46.00;95128.50;5114308;28;1110;-59
2022/09/15 08:52:59;;;;;;;;;;;;;;;26.38;46.89;95126.59;5114543;28;1064;-59
2022/09/15 08:55:25;;;;;;;;;;;;;;;26.18;47.60;95119.88;5114394;28;1205;-59
2022/09/15 08:57:51;;;;;;;;;;;;;;;26.14;48.82;95126.94;5114605;28;988;-59
2022/09/15 09:00:17;;;;;;;;;;;;;;;26.14;48.65;95134.31;5114267;28;960;-59
2022/09/15 09:03:02;;;;;;;;;;;;;;;25.91;48.86;95128.03;5113021;28;1914;-59
2022/09/15 09:05:28;;;;;;;;;;;;;;;25.82;47.98;95122.22;5114021;28;1116;-59
2022/09/15 09:08:11;;;;;;;;;;;;;;;25.86;49.13;95123.34;5114052;28;1155;-59
2022/09/15 09:10:47;;;;;;;;;;;;;;;25.92;49.26;95120.72;5113951;28;1095;-59
2022/09/15 09:13:13;;;;;;;;;;;;;;;26.03;49.59;95119.72;5114329;28;991;-59
2022/09/15 09:15:48;;;;;;;;;;;;;;;26.10;49.11;95123.06;5113891;28;1083;-59
2022/09/15 09:18:14;;;;;;;;;;;;;;;26.18;50.02;95119.88;5114205;28;1028;-59
2022/09/15 09:20:47;;;;;;;;;;;;;;;26.24;49.44;95121.56;5114096;28;1035;-59
2022/09/15 09:23:15;;;;;;;;;;;;;;;26.36;49.43;95115.91;5113993;28;1902;-59
2022/09/15 09:25:41;;;;;;;;;;;;;;;26.39;48.38;95109.91;5113930;28;968;-59
2022/09/15 09:28:22;;;;;;;;;;;;;;;26.52;49.41;95110.53;5114010;28;1035;-59
2022/09/15 09:30:48;;;;;;;;;;;;;;;26.44;49.10;95103.63;5113999;28;1023;-59
2022/09/15 09:33:24;;;;;;;;;;;;;;;26.38;50.21;95101.94;5113812;28;1044;-59
2022/09/15 09:35:51;;;;;;;;;;;;;;;26.48;49.11;95107.50;5113957;28;964;-59
2022/09/15 09:38:24;;;;;;;;;;;;;;;26.54;49.01;95100.13;5112947;28;1111;-59
2022/09/15 09:40:50;;;;;;;;;;;;;;;26.57;49.79;95094.94;5113636;28;1048;-59
2022/09/15 09:43:16;;;;;;;;;;;;;;;26.63;48.53;95087.63;5112366;28;1910;-59
2022/09/15 09:45:44;;;;;;;;;;;;;;;26.55;49.52;95086.16;5113777;28;1135;-59
2022/09/15 09:48:21;;;;;;;;;;;;;;;26.52;49.56;95077.63;5113752;28;1008;-59
2022/09/15 09:50:49;;;;;;;;;;;;;;;26.30;50.62;95078.59;5113661;28;1028;-59
2022/09/15 09:53:21;;;;;;;;;;;;;;;26.20;51.73;95073.00;5113517;28;1040;-59
2022/09/15 09:55:47;;;;;;;;;;;;;;;26.06;51.19;95073.44;5093651;28;1036;-59
2022/09/15 09:58:21;;;;;;;;;;;;;;;26.22;50.84;95055.22;5093361;28;1063;-59
2022/09/15 10:00:47;;;;;;;;;;;;;;;26.55;48.96;95060.69;5109078;28;969;-59
2022/09/15 10:03:13;;;;;;;;;;;;;;;26.65;49.15;95053.38;5093084;28;1984;-59
2022/09/15 10:05:40;;;;;;;;;;;;;;;26.64;49.53;95054.47;5093177;28;1065;-59
2022/09/15 10:08:06;;;;;;;;;;;;;;;26.66;49.63;95054.19;5092823;28;1855;-59
2022/09/15 10:10:32;;;;;;;;;;;;;;;26.64;48.41;95045.41;5093349;28;1043;-59
2022/09/15 10:13:01;;;;;;;;;;;;;;;26.62;48.55;95044.84;5093158;28;1171;-59
2022/09/15 10:15:28;;;;;;;;;;;;;;;26.72;48.29;95044.09;5093039;28;1040;-59
2022/09/15 10:17:55;;;;;;;;;;;;;;;26.70;48.30;95040.78;5093037;28;981;-59
2022/09/15 10:20:27;;;;;;;;;;;;;;;26.47;48.14;95032.66;5093010;28;1065;-59
2022/09/15 10:23:04;;;;;;;;;;;;;;;26.28;50.14;95029.50;5092797;28;1902;-59
2022/09/15 10:25:32;;;;;;;;;;;;;;;26.47;50.15;95026.34;5093147;28;1032;-58
2022/09/15 10:28:01;;;;;;;;;;;;;;;26.65;49.29;95034.19;5092823;28;1142;-59
2022/09/15 10:30:27;;;;;;;;;;;;;;;26.79;50.89;95033.72;5093025;28;972;-59
2022/09/15 10:32:53;;;;;;;;;;;;;;;26.79;49.96;95039.19;5092901;28;1024;-59
2022/09/15 10:35:19;;;;;;;;;;;;;;;26.82;49.94;95024.94;5092887;28;1110;-58
2022/09/15 10:38:04;;;;;;;;;;;;;;;26.82;48.65;95013.97;5092968;28;1055;-58
2022/09/15 10:40:36;;;;;;;;;;;;;;;26.98;47.23;95015.69;5093017;28;1015;-59
2022/09/15 10:43:02;;;;;;;;;;;;;;;27.11;47.80;95021.75;5092780;28;1985;-58
2022/09/15 10:45:33;;;;;;;;;;;;;;;27.06;48.30;95017.91;5092756;28;1028;-59
2022/09/15 10:48:17;;;;;;;;;;;;;;;27.05;48.86;95005.31;5092686;28;1060;-59
2022/09/15 10:50:53;;;;;;;;;;;;;;;27.14;47.87;95002.84;5095868;28;957;-59
2022/09/15 10:53:48;;;;;;;;;;;;;;;27.26;48.42;94988.91;5096577;28;1224;-60
2022/09/15 10:56:17;;;;;;;;;;;;;;;27.29;49.59;94984.81;5103224;28;1198;-60
2022/09/15 10:58:59;;;;;;;;;;;;;;;27.21;50.46;94984.22;5116580;28;1064;-59
2022/09/15 11:01:28;;;;;;;;;;;;;;;27.17;49.17;94979.56;5116816;28;1006;-60
2022/09/15 11:04:13;;;;;;;;;;;;;;;27.17;51.24;94977.63;5116570;28;1906;-59
2022/09/15 11:06:49;;;;;;;;;;;;;;;27.19;49.65;94963.63;5116280;28;1190;-59
2022/09/15 11:09:22;;;;;;;;;;;;;;;27.15;49.72;94957.88;5115329;28;1035;-59
2022/09/15 11:11:59;;;;;;;;;;;;;;;27.17;50.02;94957.59;5116531;28;1028;-59
2022/09/15 11:14:41;;;;;;;;;;;;;;;27.23;50.59;94959.25;5116203;28;1047;-59
2022/09/15 11:17:19;;;;;;;;;;;;;;;27.29;50.89;94968.34;5116281;28;1205;-59
2022/09/15 11:19:45;;;;;;;;;;;;;;;27.33;51.55;94962.03;5116121;28;1032;-59
2022/09/15 11:22:46;;;;;;;;;;;;;;;27.49;49.03;94953.84;5115093;28;1099;-60
2022/09/15 11:25:23;;;;;;;;;;;;;;;27.57;50.48;94951.38;5053296;28;1461;-60
2022/09/15 11:27:49;;;;;;;;;;;;;;;27.62;48.02;94956.03;5108217;28;1107;-60
2022/09/15 11:30:16;;;;;;;;;;;;;;;27.88;44.83;94956.06;5116270;28;1000;-60
2022/09/15 11:32:46;;;;;;;;;;;;;;;28.17;44.01;94951.69;5116110;28;976;-58
2022/09/15 11:35:28;;;;;;;;;;;;;;;28.23;44.46;94950.56;5116061;28;1095;-59
2022/09/15 11:37:58;;;;;;;;;;;;;;;28.33;45.08;94952.47;5115729;28;1067;-58
2022/09/15 11:40:27;;;;;;;;;;;;;;;28.29;45.38;94947.81;5116067;27;885;-59
2022/09/15 11:42:59;;;;;;;;;;;;;;;28.33;43.66;94943.41;5115633;28;1910;-59
2022/09/15 11:45:27;;;;;;;;;;;;;;;28.47;43.85;94938.97;5115858;28;968;-59
2022/09/15 11:48:00;;;;;;;;;;;;;;;28.33;45.29;94935.97;5115681;28;1041;-59
2022/09/15 11:50:38;;;;;;;;;;;;;;;28.25;45.57;94931.06;5115681;28;948;-59
2022/09/15 11:53:12;;;;;;;;;;;;;;;28.37;41.58;94930.75;5115693;28;1023;-58
2022/09/15 11:55:52;;;;;;;;;;;;;;;28.65;41.73;94925.72;5115713;28;1216;-58
2022/09/15 11:58:18;;;;;;;;;;;;;;;28.60;43.33;94913.66;5115304;28;1265;-59
2022/09/15 12:00:59;;;;;;;;;;;;;;;28.52;43.52;94905.16;5114946;28;1023;-59
2022/09/15 12:03:34;;;;;;;;;;;;;;;28.37;43.35;94897.75;5115347;28;1996;-59
2022/09/15 12:09:30;;;;;;;;;;;;;;;28.71;39.10;94894.38;3390180;28;1837;-59
2022/09/15 12:11:59;;;;;;;;;;;;;;;28.79;41.22;94893.78;5094904;28;1008;-59
2022/09/15 12:14:31;;;;;;;;;;;;;;;28.77;40.58;94893.25;5094585;28;1033;-59
2022/09/15 12:16:58;;;;;;;;;;;;;;;28.75;39.47;94890.75;5094941;28;956;-59
2022/09/15 12:19:44;;;;;;;;;;;;;;;28.87;40.36;94886.84;5093435;28;1031;-59
2022/09/15 12:22:15;;;;;;;;;;;;;;;28.85;41.21;94884.38;5094752;28;1252;-59
2022/09/15 12:24:59;;;;;;;;;;;;;;;28.76;39.92;94894.31;5094654;28;1989;-59
2022/09/15 12:27:26;;;;;;;;;;;;;;;28.91;39.63;94891.53;5094542;28;1031;-59
2022/09/15 12:29:59;;;;;;;;;;;;;;;28.99;39.04;94896.44;5094500;28;960;-59
2022/09/15 12:32:25;;;;;;;;;;;;;;;28.84;39.08;94885.50;5094483;28;1028;-59
2022/09/15 12:34:57;;;;;;;;;;;;;;;28.87;40.02;94876.66;5094548;28;984;-59
2022/09/15 12:37:25;;;;;;;;;;;;;;;28.84;40.76;94877.25;5094569;28;1157;-59
2022/09/15 12:39:52;;;;;;;;;;;;;;;28.82;39.30;94873.97;5094318;28;1043;-59
2022/09/15 12:42:30;;;;;;;;;;;;;;;28.94;39.15;94868.94;5094287;28;1037;-59
2022/09/15 12:44:59;;;;;;;;;;;;;;;29.00;37.54;94873.28;5094013;28;1981;-59
2022/09/15 12:47:28;;;;;;;;;;;;;;;29.07;37.58;94866.66;5094422;28;968;-59
2022/09/15 12:49:57;;;;;;;;;;;;;;;29.07;37.81;94867.47;5094063;28;1111;-59
2022/09/15 12:52:24;;;;;;;;;;;;;;;28.86;38.55;94855.78;5094138;28;1103;-59
2022/09/15 12:55:01;;;;;;;;;;;;;;;28.76;39.73;94851.16;5093950;28;1157;-59
2022/09/15 12:57:31;;;;;;;;;;;;;;;28.86;39.38;94863.22;5093981;28;1015;-59
2022/09/15 13:00:15;;;;;;;;;;;;;;;28.82;38.75;94854.72;5093882;28;1096;-59
2022/09/15 13:02:43;;;;;;;;;;;;;;;28.75;39.11;94852.25;5094158;28;980;-59
2022/09/15 13:05:10;;;;;;;;;;;;;;;28.77;40.39;94849.22;5093794;28;1914;-59
2022/09/15 13:07:51;;;;;;;;;;;;;;;28.72;40.87;94850.09;5093935;28;1028;-59
2022/09/15 13:10:26;;;;;;;;;;;;;;;28.74;39.48;94858.88;5105273;28;1116;-59
2022/09/15 13:12:57;;;;;;;;;;;;;;;28.53;41.01;94858.16;5114149;28;1031;-59
2022/09/15 13:15:24;;;;;;;;;;;;;;;28.36;41.98;94841.97;5113985;28;968;-59
2022/09/15 13:17:50;;;;;;;;;;;;;;;28.40;41.87;94845.78;5114028;28;1028;-59